createdAt,value
2019-04-19T00:01:28.775Z,14.10
2019-04-19T00:04:06.935Z,14.10
2019-04-19T00:06:39.157Z,14.00
2019-04-19T00:09:24.659Z,14.10
2019-04-19T00:11:44.207Z,14.00
2019-04-19T00:14:08.570Z,14.00
2019-04-19T00:16:38.438Z,14.10
2019-04-19T00:19:38.525Z,14.30
2019-04-19T00:22:04.774Z,14.00
2019-04-19T00:24:07.994Z,14.10
2019-04-19T00:26:37.878Z,13.90
2019-04-19T00:29:16.236Z,13.80
2019-04-19T00:31:47.223Z,13.80
2019-04-19T00:34:08.369Z,13.90
2019-04-19T00:36:38.292Z,14.00
2019-04-19T00:39:35.646Z,14.00
2019-04-19T00:42:22.219Z,13.80
2019-04-19T00:44:56.774Z,13.80
2019-04-19T00:47:23.255Z,13.80
2019-04-19T00:49:55.405Z,13.60
2019-04-19T00:52:23.463Z,13.40
2019-04-19T00:54:52.876Z,13.30
2019-04-19T00:57:20.443Z,13.50
2019-04-19T00:59:45.274Z,13.50
2019-04-19T01:02:16.660Z,13.60
2019-04-19T01:04:41.354Z,13.60
2019-04-19T01:07:18.730Z,13.50
2019-04-19T01:09:49.908Z,13.60
2019-04-19T01:12:22.724Z,13.70
2019-04-19T01:14:50.853Z,13.50
2019-04-19T01:17:25.563Z,13.30
2019-04-19T01:19:48.936Z,13.30
2019-04-19T01:22:18.284Z,13.30
2019-04-19T01:24:47.605Z,13.30
2019-04-19T01:27:19.584Z,13.30
2019-04-19T01:29:48.890Z,13.20
2019-04-19T01:32:18.274Z,13.20
2019-04-19T01:34:46.733Z,13.30
2019-04-19T01:37:20.636Z,13.30
2019-04-19T01:40:05.828Z,13.20
2019-04-19T01:42:36.816Z,13.20
2019-04-19T01:45:22.225Z,13.30
2019-04-19T01:47:59.971Z,13.30
2019-04-19T01:50:50.777Z,13.20
2019-04-19T01:53:22.865Z,13.20
2019-04-19T01:55:37.216Z,13.30
2019-04-19T01:58:08.264Z,13.30
2019-04-19T02:00:39.734Z,13.10
2019-04-19T02:03:07.568Z,13.00
2019-04-19T02:05:36.140Z,13.00
2019-04-19T02:08:09.424Z,12.70
2019-04-19T02:11:26.894Z,12.80
2019-04-19T02:13:52.127Z,13.10
2019-04-19T02:16:17.994Z,13.20
2019-04-19T02:18:41.618Z,13.10
2019-04-19T02:21:12.940Z,12.90
2019-04-19T02:23:45.475Z,13.20
2019-04-19T02:26:14.628Z,13.30
2019-04-19T02:28:42.995Z,13.40
2019-04-19T02:31:40.287Z,13.50
2019-04-19T02:34:19.182Z,13.50
2019-04-19T02:36:47.537Z,13.30
2019-04-19T02:39:14.142Z,13.10
2019-04-19T02:41:38.707Z,13.10
2019-04-19T02:51:44.968Z,13.00
2019-04-19T02:54:22.694Z,12.80
2019-04-19T03:02:32.269Z,13.20
2019-04-19T03:07:01.110Z,13.10
2019-04-19T03:09:32.837Z,13.00
2019-04-19T03:12:12.577Z,12.80
2019-04-19T03:14:46.496Z,12.90
2019-04-19T03:17:19.073Z,12.90
2019-04-19T03:19:44.220Z,12.90
2019-04-19T03:22:16.410Z,12.70
2019-04-19T03:24:47.857Z,12.80
2019-04-19T03:27:09.609Z,12.70
2019-04-19T03:29:35.201Z,12.80
2019-04-19T03:32:44.856Z,12.70
2019-04-19T03:34:57.384Z,12.80
2019-04-19T03:37:21.240Z,12.60
2019-04-19T03:40:00.696Z,12.70
2019-04-19T03:42:34.888Z,12.50
2019-04-19T03:45:01.681Z,12.50
2019-04-19T03:47:37.750Z,12.40
2019-04-19T03:50:03.060Z,12.50
2019-04-19T03:52:33.341Z,12.50
2019-04-19T03:55:04.787Z,12.50
2019-04-19T03:57:27.300Z,12.60
2019-04-19T03:59:45.866Z,12.40
2019-04-19T04:02:20.079Z,12.50
2019-04-19T04:04:53.717Z,12.50
2019-04-19T04:07:21.893Z,12.60
2019-04-19T04:09:57.320Z,12.50
2019-04-19T04:12:44.262Z,12.40
2019-04-19T04:15:40.501Z,12.30
2019-04-19T04:17:58.182Z,12.20
2019-04-19T04:20:30.645Z,12.00
2019-04-19T04:23:03.526Z,11.80
2019-04-19T04:25:41.249Z,11.80
2019-04-19T04:28:08.977Z,11.80
2019-04-19T04:30:37.958Z,11.80
2019-04-19T04:33:10.406Z,11.80
2019-04-19T04:35:49.462Z,11.80
2019-04-19T04:38:13.719Z,11.80
2019-04-19T04:40:32.136Z,11.80
2019-04-19T04:43:15.069Z,11.80
2019-04-19T04:46:05.255Z,11.60
2019-04-19T04:48:32.414Z,11.70
2019-04-19T04:51:15.379Z,11.70
2019-04-19T04:53:44.812Z,11.90
2019-04-19T04:56:17.418Z,12.10
2019-04-19T04:58:47.818Z,12.20
2019-04-19T05:01:29.140Z,12.20
2019-04-19T05:04:04.467Z,12.10
2019-04-19T05:06:34.378Z,12.00
2019-04-19T05:09:04.560Z,12.00
2019-04-19T05:11:33.994Z,12.00
2019-04-19T05:14:08.190Z,11.90
2019-04-19T05:19:08.153Z,12.00
2019-04-19T05:21:36.340Z,12.10
2019-04-19T05:24:09.326Z,12.00
2019-04-19T05:29:06.300Z,12.40
2019-04-19T05:31:31.170Z,12.20
2019-04-19T05:34:19.271Z,11.90
2019-04-19T05:36:43.668Z,11.70
2019-04-19T05:39:19.983Z,11.60
2019-04-19T05:41:59.826Z,11.70
2019-04-19T05:45:09.285Z,11.70
2019-04-19T05:47:22.725Z,11.70
2019-04-19T05:49:52.392Z,11.80
2019-04-19T05:52:24.274Z,11.80
2019-04-19T05:54:34.753Z,11.90
2019-04-19T05:57:25.657Z,12.10
2019-04-19T05:59:44.595Z,12.00
2019-04-19T06:02:16.807Z,11.90
2019-04-19T06:05:01.389Z,11.80
2019-04-19T06:07:24.534Z,11.90
2019-04-19T06:09:36.763Z,12.20
2019-04-19T06:12:14.606Z,12.20
2019-04-19T06:15:01.109Z,12.30
2019-04-19T06:17:36.798Z,12.30
2019-04-19T06:20:13.931Z,12.40
2019-04-19T06:22:39.459Z,12.40
2019-04-19T06:25:08.542Z,12.40
2019-04-19T06:27:55.393Z,12.40
2019-04-19T06:30:16.131Z,12.50
2019-04-19T06:32:46.115Z,12.30
2019-04-19T06:35:05.383Z,12.40
2019-04-19T06:37:27.625Z,12.50
2019-04-19T06:40:04.912Z,12.50
2019-04-19T06:42:36.036Z,12.60
2019-04-19T06:45:13.448Z,12.60
2019-04-19T06:47:33.739Z,12.50
2019-04-19T06:49:57.360Z,12.50
2019-04-19T06:52:31.391Z,12.50
2019-04-19T06:54:57.887Z,12.50
2019-04-19T06:57:32.589Z,12.50
2019-04-19T07:00:11.578Z,12.40
2019-04-19T07:02:28.370Z,12.50
2019-04-19T07:05:17.607Z,12.70
2019-04-19T07:07:50.744Z,12.80
2019-04-19T07:10:30.415Z,12.80
2019-04-19T07:12:50.459Z,12.90
2019-04-19T07:15:30.123Z,12.80
2019-04-19T07:17:46.176Z,13.00
2019-04-19T07:20:16.726Z,13.10
2019-04-19T07:22:48.364Z,13.20
2019-04-19T07:25:25.767Z,13.40
2019-04-19T07:27:44.278Z,13.50
2019-04-19T07:30:03.886Z,13.60
2019-04-19T07:32:39.126Z,13.70
2019-04-19T07:35:15.684Z,13.70
2019-04-19T07:37:47.360Z,13.90
2019-04-19T07:40:26.966Z,14.10
2019-04-19T07:42:51.306Z,14.20
2019-04-19T07:45:24.024Z,14.40
2019-04-19T07:47:57.521Z,14.30
2019-04-19T07:50:24.836Z,14.50
2019-04-19T07:52:55.435Z,14.50
2019-04-19T07:55:20.742Z,14.60
2019-04-19T07:58:24.969Z,14.70
2019-04-19T08:01:00.749Z,14.70
2019-04-19T08:03:25.959Z,14.80
2019-04-19T08:08:32.541Z,15.00
2019-04-19T08:13:31.594Z,15.00
2019-04-19T08:15:55.007Z,15.20
2019-04-19T08:28:10.560Z,15.50
2019-04-19T08:30:34.805Z,15.60
2019-04-19T08:32:57.611Z,15.70
2019-04-19T08:35:27.570Z,15.90
2019-04-19T08:38:03.393Z,15.90
2019-04-19T08:40:43.255Z,16.00
2019-04-19T08:43:17.347Z,16.00
2019-04-19T08:45:36.344Z,16.20
2019-04-19T08:48:34.794Z,16.40
2019-04-19T08:50:58.469Z,16.50
2019-04-19T08:53:43.993Z,16.60
2019-04-19T08:56:11.729Z,16.60
2019-04-19T08:58:47.992Z,16.70
2019-04-19T09:01:20.928Z,16.80
2019-04-19T09:03:54.166Z,16.90
2019-04-19T09:06:56.577Z,17.00
2019-04-19T09:08:47.550Z,17.30
2019-04-19T09:11:16.648Z,17.40
2019-04-19T09:13:52.183Z,17.50
2019-04-19T09:16:23.260Z,17.50
2019-04-19T09:18:59.518Z,17.50
2019-04-19T09:21:18.157Z,17.50
2019-04-19T09:23:42.455Z,17.70
2019-04-19T09:26:23.514Z,17.70
2019-04-19T09:28:57.656Z,17.90
2019-04-19T09:31:25.364Z,18.10
2019-04-19T09:33:40.681Z,18.20
2019-04-19T09:36:12.047Z,18.20
2019-04-19T09:38:55.538Z,18.20
2019-04-19T09:41:19.378Z,18.30
2019-04-19T09:43:52.211Z,18.30
2019-04-19T09:46:10.299Z,18.30
2019-04-19T09:48:55.406Z,18.50
2019-04-19T09:51:29.063Z,18.40
2019-04-19T09:54:11.409Z,18.50
2019-04-19T09:56:31.157Z,18.70
2019-04-19T09:58:53.985Z,18.70
2019-04-19T10:01:14.579Z,18.80
2019-04-19T10:03:49.339Z,19.00
2019-04-19T10:06:15.150Z,19.00
2019-04-19T10:08:43.893Z,19.10
2019-04-19T10:11:12.838Z,19.30
2019-04-19T10:13:42.076Z,19.30
2019-04-19T10:16:24.443Z,19.30
2019-04-19T10:18:59.295Z,19.50
2019-04-19T10:21:49.439Z,19.60
2019-04-19T10:24:20.968Z,19.50
2019-04-19T10:26:56.809Z,19.50
2019-04-19T10:29:31.861Z,19.70
2019-04-19T10:32:00.007Z,19.80
2019-04-19T10:34:28.711Z,19.90
2019-04-19T10:36:59.941Z,19.90
2019-04-19T10:39:29.801Z,20.10
2019-04-19T10:41:58.746Z,20.10
2019-04-19T10:44:27.414Z,20.20
2019-04-19T10:46:56.665Z,19.80
2019-04-19T10:49:34.307Z,20.20
2019-04-19T10:52:04.882Z,20.20
2019-04-19T10:54:33.625Z,20.20
2019-04-19T10:57:33.669Z,20.40
2019-04-19T11:00:03.629Z,20.50
2019-04-19T11:02:34.464Z,20.70
2019-04-19T11:05:05.230Z,20.70
2019-04-19T11:07:35.245Z,20.80
2019-04-19T11:10:04.894Z,20.90
2019-04-19T11:12:34.337Z,20.90
2019-04-19T11:15:04.432Z,21.00
2019-04-19T11:17:33.817Z,21.10
2019-04-19T11:20:17.017Z,21.10
2019-04-19T11:22:32.937Z,21.20
2019-04-19T11:25:02.046Z,21.20
2019-04-19T11:27:31.138Z,21.30
2019-04-19T11:30:03.348Z,21.60
2019-04-19T11:32:57.201Z,21.80
2019-04-19T11:35:28.041Z,21.70
2019-04-19T11:37:57.218Z,21.90
2019-04-19T11:40:27.124Z,22.00
2019-04-19T11:42:55.864Z,21.90
2019-04-19T11:45:25.930Z,21.70
2019-04-19T11:47:55.400Z,22.30
2019-04-19T11:50:25.151Z,22.70
2019-04-19T11:53:14.297Z,23.40
2019-04-19T11:55:46.531Z,24.40
2019-04-19T11:58:16.752Z,25.50
2019-04-19T12:01:12.079Z,26.20
2019-04-19T12:03:43.506Z,26.60
2019-04-19T12:06:12.156Z,27.10
2019-04-19T12:08:42.763Z,26.80
2019-04-19T12:11:12.635Z,26.60
2019-04-19T12:13:41.470Z,27.00
2019-04-19T12:16:10.875Z,28.00
2019-04-19T12:18:41.718Z,28.50
2019-04-19T12:21:11.277Z,27.80
2019-04-19T12:23:41.089Z,27.20
2019-04-19T12:26:09.866Z,27.10
2019-04-19T12:28:39.682Z,28.40
2019-04-19T12:31:09.446Z,28.90
2019-04-19T12:33:39.465Z,29.10
2019-04-19T12:36:08.526Z,29.60
2019-04-19T12:38:37.899Z,27.80
2019-04-19T12:41:07.976Z,29.00
2019-04-19T12:43:38.010Z,28.50
2019-04-19T12:46:07.351Z,27.80
2019-04-19T12:48:37.489Z,27.30
2019-04-19T12:51:07.829Z,28.20
2019-04-19T12:53:37.000Z,27.60
2019-04-19T12:56:06.267Z,28.50
2019-04-19T12:58:35.804Z,28.30
2019-04-19T13:01:14.220Z,28.70
2019-04-19T13:03:54.765Z,29.70
2019-04-19T13:06:27.253Z,30.90
2019-04-19T13:08:57.078Z,31.30
2019-04-19T13:11:27.107Z,32.00
2019-04-19T13:13:57.544Z,30.80
2019-04-19T13:16:26.333Z,29.60
2019-04-19T13:18:56.206Z,29.10
2019-04-19T13:21:26.231Z,27.90
2019-04-19T13:23:56.004Z,29.20
2019-04-19T13:26:25.254Z,28.40
2019-04-19T13:28:53.957Z,29.60
2019-04-19T13:31:23.136Z,29.50
2019-04-19T13:33:53.147Z,29.30
2019-04-19T13:36:35.821Z,29.60
2019-04-19T13:39:25.820Z,28.50
2019-04-19T13:41:58.954Z,28.50
2019-04-19T13:44:29.105Z,29.10
2019-04-19T13:46:58.856Z,29.20
2019-04-19T13:49:28.590Z,29.30
2019-04-19T13:51:58.647Z,29.10
2019-04-19T13:54:27.508Z,28.90
2019-04-19T13:56:57.568Z,28.30
2019-04-19T13:59:41.045Z,29.20
2019-04-19T14:01:56.739Z,29.30
2019-04-19T14:04:25.857Z,29.00
2019-04-19T14:06:54.564Z,29.00
2019-04-19T14:09:23.315Z,29.80
2019-04-19T14:11:53.237Z,29.60
2019-04-19T14:14:23.205Z,30.20
2019-04-19T14:16:51.987Z,28.70
2019-04-19T14:19:20.677Z,28.20
2019-04-19T14:21:49.304Z,28.60
2019-04-19T14:24:17.964Z,28.90
2019-04-19T14:26:51.754Z,28.20
2019-04-19T14:29:17.208Z,28.40
2019-04-19T14:31:46.377Z,28.80
2019-04-19T15:24:05.966Z,26.20
2019-04-19T15:26:34.506Z,26.00
2019-04-19T15:29:02.985Z,25.80
2019-04-19T15:31:32.233Z,26.00
2019-04-19T15:34:00.838Z,25.70
2019-04-19T15:36:28.884Z,25.80
2019-04-19T15:38:57.721Z,25.50
2019-04-19T15:41:26.718Z,25.30
2019-04-19T15:43:54.520Z,25.30
2019-04-19T15:46:22.392Z,25.40
2019-04-19T15:48:53.823Z,25.60
2019-04-19T15:51:26.895Z,25.80
2019-04-19T15:53:51.735Z,25.90
2019-04-19T15:56:20.273Z,25.40
2019-04-19T15:58:48.949Z,25.40
2019-04-19T16:01:19.732Z,25.30
2019-04-19T16:03:54.516Z,25.00
2019-04-19T16:06:40.581Z,24.80
2019-04-19T16:09:21.467Z,24.70
2019-04-19T16:12:08.059Z,24.60
2019-04-19T16:14:36.081Z,24.80
2019-04-19T16:17:05.206Z,24.70
2019-04-19T16:19:34.191Z,24.60
2019-04-19T16:22:03.924Z,24.50
2019-04-19T16:24:31.784Z,24.50
2019-04-19T16:27:00.452Z,24.40
2019-04-19T16:29:38.705Z,24.70
2019-04-19T16:31:58.734Z,24.60
2019-04-19T16:34:27.191Z,24.50
2019-04-19T16:36:56.251Z,24.60
2019-04-19T16:39:26.755Z,24.50
2019-04-19T16:41:55.083Z,24.50
2019-04-19T16:44:23.520Z,24.60
2019-04-19T16:46:51.482Z,24.60
2019-04-19T16:49:20.358Z,24.40
2019-04-19T16:51:53.558Z,24.20
2019-04-19T16:54:18.440Z,24.10
2019-04-19T16:56:46.307Z,24.00
2019-04-19T16:59:14.303Z,24.00
2019-04-19T17:01:43.010Z,23.80
2019-04-19T17:04:11.349Z,23.70
2019-04-19T17:06:40.422Z,23.60
2019-04-19T17:09:09.309Z,23.50
2019-04-19T17:11:37.648Z,23.50
2019-04-19T17:14:07.075Z,23.40
2019-04-19T17:17:07.014Z,23.40
2019-04-19T17:19:57.352Z,23.50
2019-04-19T17:22:40.872Z,23.20
2019-04-19T17:25:11.021Z,23.20
2019-04-19T17:27:39.272Z,23.20
2019-04-19T17:30:08.754Z,23.00
2019-04-19T17:32:36.595Z,22.90
2019-04-19T17:35:05.977Z,22.60
2019-04-19T17:37:34.072Z,22.50
2019-04-19T17:40:02.869Z,22.40
2019-04-19T17:42:31.075Z,22.30
2019-04-19T17:44:59.808Z,22.20
2019-04-19T17:47:32.907Z,22.10
2019-04-19T17:49:58.329Z,21.90
2019-04-19T17:52:29.732Z,21.80
2019-04-19T17:55:05.951Z,21.70
2019-04-19T17:57:25.337Z,21.50
2019-04-19T17:59:54.312Z,21.50
2019-04-19T18:02:23.311Z,21.50
2019-04-19T18:04:51.635Z,21.40
2019-04-19T18:07:19.417Z,21.40
2019-04-19T18:09:51.797Z,21.40
2019-04-19T18:12:17.121Z,21.30
2019-04-19T18:14:45.741Z,21.30
2019-04-19T18:17:14.609Z,21.20
2019-04-19T18:19:44.050Z,21.10
2019-04-19T18:22:21.935Z,21.00
2019-04-19T18:24:47.721Z,21.00
2019-04-19T18:27:17.012Z,21.00
2019-04-19T18:29:40.617Z,20.90
2019-04-19T18:32:21.075Z,20.90
2019-04-19T18:34:48.968Z,20.80
2019-04-19T18:37:18.645Z,20.80
2019-04-19T18:39:46.391Z,20.70
2019-04-19T18:42:14.173Z,20.60
2019-04-19T18:44:47.880Z,20.60
2019-04-19T18:47:12.397Z,20.50
2019-04-19T18:49:41.500Z,20.50
2019-04-19T18:52:21.940Z,20.50
2019-04-19T18:54:50.119Z,20.50
2019-04-19T18:57:09.657Z,20.40
2019-04-19T18:59:38.546Z,20.30
2019-04-19T19:02:10.511Z,20.40
2019-04-19T19:04:36.992Z,20.20
2019-04-19T19:07:12.204Z,20.10
2019-04-19T19:09:42.284Z,20.10
2019-04-19T19:12:08.887Z,20.00
2019-04-19T19:14:35.233Z,19.90
2019-04-19T19:17:06.884Z,19.90
2019-04-19T19:19:35.237Z,19.80
2019-04-19T19:22:02.307Z,19.80
2019-04-19T19:24:48.779Z,19.70
2019-04-19T19:27:09.430Z,19.60
2019-04-19T19:29:30.022Z,19.50
2019-04-19T19:32:03.698Z,19.50
2019-04-19T19:34:31.079Z,19.50
2019-04-19T19:36:58.800Z,19.50
2019-04-19T19:39:34.582Z,19.50
2019-04-19T19:44:39.407Z,19.30
2019-04-19T19:47:42.501Z,19.10
2019-04-19T19:50:14.921Z,19.10
2019-04-19T19:52:28.553Z,19.10
2019-04-19T19:55:06.183Z,19.10
2019-04-19T19:57:31.356Z,19.10
2019-04-19T20:00:03.228Z,19.10
2019-04-19T20:02:25.781Z,19.00
2019-04-19T20:04:44.911Z,18.90
2019-04-19T20:07:16.734Z,18.80
2019-04-19T20:09:44.904Z,18.80
2019-04-19T20:12:18.060Z,18.80
2019-04-19T20:14:43.526Z,18.80
2019-04-19T20:17:15.005Z,18.80
2019-04-19T20:19:41.519Z,18.70
2019-04-19T20:22:10.559Z,18.70
2019-04-19T20:24:52.727Z,18.60
2019-04-19T20:27:15.491Z,18.60
2019-04-19T20:29:39.437Z,18.50
2019-04-19T20:32:12.489Z,18.50
2019-04-19T20:34:38.494Z,18.50
2019-04-19T20:37:08.851Z,18.50
2019-04-19T20:39:37.725Z,18.40
2019-04-19T20:42:07.935Z,18.40
2019-04-19T20:44:52.430Z,18.30
2019-04-19T20:47:06.249Z,18.20
2019-04-19T20:49:40.032Z,18.20
2019-04-19T20:52:14.316Z,18.10
2019-04-19T20:54:58.680Z,18.10
2019-04-19T20:57:37.829Z,18.10
2019-04-19T20:59:57.406Z,18.00
2019-04-19T21:02:30.778Z,18.00
2019-04-19T21:04:58.749Z,18.00
2019-04-19T21:07:28.243Z,17.90
2019-04-19T21:09:53.905Z,17.90
2019-04-19T21:12:27.544Z,17.80
2019-04-19T21:14:52.523Z,17.80
2019-04-19T21:17:20.926Z,17.70
2019-04-19T21:19:51.595Z,17.60
2019-04-19T21:22:25.657Z,17.60
2019-04-19T21:25:02.087Z,17.50
2019-04-19T21:27:22.385Z,17.40
2019-04-19T21:29:48.067Z,17.30
2019-04-19T21:32:20.905Z,17.30
2019-04-19T21:34:45.924Z,17.20
2019-04-19T21:37:21.447Z,17.20
2019-04-19T21:39:47.918Z,17.10
2019-04-19T21:42:14.212Z,17.00
2019-04-19T21:44:44.486Z,16.90
2019-04-19T21:47:12.902Z,16.90
2019-04-19T21:49:44.346Z,16.80
2019-04-19T21:52:17.367Z,16.80
2019-04-19T21:54:42.071Z,16.70
2019-04-19T21:57:10.013Z,16.60
2019-04-19T21:59:40.648Z,16.60
2019-04-19T22:02:07.632Z,16.60
2019-04-19T22:04:44.814Z,16.50
2019-04-19T22:07:08.739Z,16.50
2019-04-19T22:09:36.487Z,16.50
2019-04-19T22:12:06.026Z,16.40
2019-04-19T22:14:34.417Z,16.30
2019-04-19T22:17:05.540Z,16.30
2019-04-19T22:19:34.898Z,16.30
2019-04-19T22:22:01.402Z,16.20
2019-04-19T22:24:34.042Z,16.10
2019-04-19T22:26:59.633Z,16.10
2019-04-19T22:29:29.364Z,16.10
2019-04-19T22:32:04.626Z,16.00
2019-04-19T22:34:28.441Z,16.00
2019-04-19T22:36:58.601Z,16.00
2019-04-19T22:39:26.040Z,16.00
2019-04-19T22:41:54.830Z,15.90
2019-04-19T22:44:22.987Z,15.80
2019-04-19T22:46:54.537Z,15.80
2019-04-19T22:49:20.374Z,15.80
2019-04-19T22:51:48.860Z,15.70
2019-04-19T22:54:17.076Z,15.70
2019-04-19T22:56:58.808Z,15.70
2019-04-19T22:59:16.986Z,15.60
2019-04-19T23:01:57.349Z,15.60
2019-04-19T23:04:25.971Z,15.60
2019-04-19T23:06:58.805Z,15.50
2019-04-19T23:09:24.763Z,15.50
2019-04-19T23:11:53.435Z,15.50
2019-04-19T23:14:43.285Z,15.40
2019-04-19T23:17:10.452Z,15.40
2019-04-19T23:19:43.406Z,15.40
2019-04-19T23:22:08.356Z,15.40
2019-04-19T23:24:43.740Z,15.40
2019-04-19T23:27:18.453Z,15.40
2019-04-19T23:29:36.374Z,15.30
2019-04-19T23:32:04.430Z,15.30
2019-04-19T23:34:32.215Z,15.30
2019-04-19T23:37:06.501Z,15.20
2019-04-19T23:39:29.614Z,15.20
2019-04-19T23:41:57.472Z,15.20
2019-04-19T23:44:26.553Z,15.10
2019-04-19T23:46:58.812Z,15.10
2019-04-19T23:49:24.151Z,15.10
2019-04-19T23:51:52.016Z,15.00
2019-04-19T23:54:25.301Z,15.00
2019-04-19T23:57:00.568Z,14.90
2019-04-19T23:59:20.902Z,14.90
